createdAt,value
2023-01-19T00:00:55.450Z,5.40
2023-01-19T00:03:22.367Z,5.40
2023-01-19T00:05:49.397Z,5.40
2023-01-19T00:08:16.732Z,5.50
2023-01-19T00:10:46.944Z,5.50
2023-01-19T00:13:15.218Z,5.50
2023-01-19T00:15:42.211Z,5.50
2023-01-19T00:18:10.631Z,5.60
2023-01-19T00:20:38.499Z,5.60
2023-01-19T00:23:07.610Z,5.60
2023-01-19T00:25:34.896Z,5.60
2023-01-19T00:28:02.082Z,5.70
2023-01-19T00:30:29.173Z,5.70
2023-01-19T00:32:56.342Z,5.60
2023-01-19T00:35:23.300Z,5.70
2023-01-19T00:37:50.478Z,5.70
2023-01-19T00:40:17.879Z,5.70
2023-01-19T00:42:44.796Z,5.70
2023-01-19T00:45:16.597Z,5.70
2023-01-19T00:47:43.510Z,5.60
2023-01-19T00:50:12.640Z,5.60
2023-01-19T00:52:40.487Z,5.60
2023-01-19T00:55:09.451Z,5.50
2023-01-19T00:57:36.810Z,5.50
2023-01-19T01:00:11.840Z,5.50
2023-01-19T01:02:40.510Z,5.50
2023-01-19T01:05:08.780Z,5.50
2023-01-19T01:07:44.683Z,5.50
2023-01-19T01:10:13.155Z,5.50
2023-01-19T01:12:41.286Z,5.40
2023-01-19T01:15:22.931Z,5.50
2023-01-19T01:17:52.992Z,5.50
2023-01-19T01:20:22.349Z,5.50
2023-01-19T01:22:52.433Z,5.50
2023-01-19T01:25:22.667Z,5.50
2023-01-19T01:27:51.293Z,5.50
2023-01-19T01:30:18.622Z,5.40
2023-01-19T01:32:45.557Z,5.40
2023-01-19T01:35:14.262Z,5.30
2023-01-19T01:37:42.715Z,5.30
2023-01-19T01:40:16.712Z,5.20
2023-01-19T01:42:44.100Z,5.20
2023-01-19T01:45:20.071Z,5.10
2023-01-19T01:47:49.980Z,5.00
2023-01-19T01:50:19.813Z,5.00
2023-01-19T01:53:07.275Z,5.00
2023-01-19T01:55:49.741Z,5.00
2023-01-19T01:58:17.242Z,5.00
2023-01-19T02:01:02.831Z,5.00
2023-01-19T02:03:29.961Z,5.00
2023-01-19T02:06:01.662Z,5.10
2023-01-19T02:09:15.553Z,5.10
2023-01-19T02:12:01.885Z,5.10
2023-01-19T02:14:28.811Z,5.20
2023-01-19T02:16:55.848Z,5.20
2023-01-19T02:19:28.428Z,5.30
2023-01-19T02:22:01.186Z,5.30
2023-01-19T02:24:29.298Z,5.30
2023-01-19T02:26:56.643Z,5.30
2023-01-19T02:29:25.987Z,5.40
2023-01-19T02:31:53.976Z,5.40
2023-01-19T02:34:22.755Z,5.40
2023-01-19T02:36:59.320Z,5.40
2023-01-19T02:39:30.952Z,5.40
2023-01-19T02:42:03.485Z,5.40
2023-01-19T02:44:31.768Z,5.40
2023-01-19T02:46:58.627Z,5.50
2023-01-19T02:49:28.570Z,5.50
2023-01-19T02:51:55.968Z,5.50
2023-01-19T02:54:34.953Z,5.50
2023-01-19T02:57:10.743Z,5.50
2023-01-19T02:59:52.775Z,5.50
2023-01-19T03:02:33.252Z,5.50
2023-01-19T03:05:15.138Z,5.50
2023-01-19T03:08:06.335Z,5.50
2023-01-19T03:10:48.339Z,5.50
2023-01-19T03:13:34.772Z,5.40
2023-01-19T03:16:22.608Z,5.40
2023-01-19T03:18:56.676Z,5.50
2023-01-19T03:21:27.069Z,5.50
2023-01-19T03:23:58.784Z,5.50
2023-01-19T03:26:29.829Z,5.50
2023-01-19T03:28:59.838Z,5.50
2023-01-19T03:31:28.903Z,5.50
2023-01-19T03:34:00.464Z,5.60
2023-01-19T03:36:35.879Z,5.60
2023-01-19T03:39:05.257Z,5.60
2023-01-19T03:41:34.311Z,5.70
2023-01-19T03:44:02.672Z,5.70
2023-01-19T03:46:31.465Z,5.80
2023-01-19T03:49:00.011Z,5.90
2023-01-19T03:51:27.393Z,5.90
2023-01-19T03:53:54.273Z,5.90
2023-01-19T03:56:24.467Z,5.90
2023-01-19T03:58:51.863Z,5.90
2023-01-19T04:01:22.902Z,6.00
2023-01-19T04:03:50.907Z,6.00
2023-01-19T04:06:18.629Z,6.00
2023-01-19T04:08:47.181Z,6.00
2023-01-19T04:11:14.136Z,6.00
2023-01-19T04:13:41.091Z,5.90
2023-01-19T04:16:09.872Z,5.90
2023-01-19T04:18:37.095Z,5.80
2023-01-19T04:21:06.276Z,5.70
2023-01-19T04:23:33.833Z,5.70
2023-01-19T04:26:06.231Z,5.60
2023-01-19T04:28:33.515Z,5.60
2023-01-19T04:31:01.123Z,5.50
2023-01-19T04:33:28.549Z,5.40
2023-01-19T04:35:56.161Z,5.30
2023-01-19T04:38:24.294Z,5.30
2023-01-19T04:40:52.829Z,5.30
2023-01-19T04:43:20.590Z,5.20
2023-01-19T04:45:47.835Z,5.20
2023-01-19T04:48:14.808Z,5.20
2023-01-19T04:50:42.034Z,5.20
2023-01-19T04:53:09.587Z,5.10
2023-01-19T04:55:37.828Z,5.10
2023-01-19T04:58:05.307Z,5.10
2023-01-19T05:00:32.143Z,5.00
2023-01-19T05:02:59.786Z,5.00
2023-01-19T05:05:27.392Z,5.00
2023-01-19T05:07:54.913Z,5.00
2023-01-19T05:10:22.153Z,5.00
2023-01-19T05:12:49.518Z,5.00
2023-01-19T05:15:16.452Z,4.90
2023-01-19T05:17:43.369Z,4.90
2023-01-19T05:20:12.523Z,4.90
2023-01-19T05:22:40.491Z,4.90
2023-01-19T05:25:11.140Z,4.90
2023-01-19T05:27:38.669Z,4.90
2023-01-19T05:30:06.661Z,4.90
2023-01-19T05:32:33.506Z,4.90
2023-01-19T05:35:00.587Z,4.90
2023-01-19T05:37:27.488Z,5.00
2023-01-19T05:39:54.785Z,5.00
2023-01-19T05:42:21.835Z,5.00
2023-01-19T05:44:49.157Z,5.00
2023-01-19T05:47:16.460Z,5.10
2023-01-19T05:49:43.360Z,5.10
2023-01-19T05:52:10.321Z,5.10
2023-01-19T05:54:40.294Z,5.10
2023-01-19T05:57:07.731Z,5.10
2023-01-19T05:59:34.596Z,5.20
2023-01-19T06:02:01.579Z,5.20
2023-01-19T06:04:28.487Z,5.20
2023-01-19T06:06:55.428Z,5.20
2023-01-19T06:09:22.319Z,5.30
2023-01-19T06:11:49.257Z,5.30
2023-01-19T06:14:16.639Z,5.30
2023-01-19T06:16:43.712Z,5.30
2023-01-19T06:19:10.886Z,5.40
2023-01-19T06:21:38.324Z,5.40
2023-01-19T06:24:05.810Z,5.40
2023-01-19T06:26:32.702Z,5.40
2023-01-19T06:29:02.705Z,5.40
2023-01-19T06:31:29.599Z,5.40
2023-01-19T06:33:56.508Z,5.40
2023-01-19T06:36:23.511Z,5.40
2023-01-19T06:38:50.402Z,5.40
2023-01-19T06:41:17.275Z,5.40
2023-01-19T06:43:44.158Z,5.40
2023-01-19T06:46:11.198Z,5.40
2023-01-19T06:48:38.048Z,5.40
2023-01-19T06:51:06.489Z,5.40
2023-01-19T06:53:33.384Z,5.50
2023-01-19T06:56:04.569Z,5.50
2023-01-19T06:58:32.098Z,5.60
2023-01-19T07:01:03.894Z,5.60
2023-01-19T07:03:31.757Z,5.60
2023-01-19T07:06:00.905Z,5.70
2023-01-19T07:08:28.660Z,5.70
2023-01-19T07:11:25.949Z,5.80
2023-01-19T07:13:57.039Z,5.90
2023-01-19T07:16:24.343Z,5.90
2023-01-19T07:18:51.442Z,5.90
2023-01-19T07:21:19.247Z,5.90
2023-01-19T07:23:49.261Z,5.90
2023-01-19T07:26:18.603Z,5.90
2023-01-19T07:28:47.445Z,6.00
2023-01-19T07:31:15.852Z,6.00
2023-01-19T07:33:42.889Z,6.00
2023-01-19T07:36:10.111Z,6.00
2023-01-19T07:38:37.101Z,6.00
2023-01-19T07:41:06.236Z,5.90
2023-01-19T07:43:34.354Z,5.90
2023-01-19T07:46:04.439Z,6.00
2023-01-19T07:48:31.577Z,5.90
2023-01-19T07:51:05.607Z,5.90
2023-01-19T07:53:32.975Z,5.90
2023-01-19T07:56:00.110Z,5.90
2023-01-19T07:58:27.350Z,5.90
2023-01-19T08:00:54.799Z,5.90
2023-01-19T08:03:21.856Z,5.80
2023-01-19T08:05:53.086Z,5.80
2023-01-19T08:08:20.429Z,5.80
2023-01-19T08:10:51.386Z,5.80
2023-01-19T08:13:19.096Z,5.80
2023-01-19T08:15:50.459Z,5.80
2023-01-19T08:18:18.092Z,5.70
2023-01-19T08:20:45.004Z,5.70
2023-01-19T08:23:12.590Z,5.60
2023-01-19T08:25:44.374Z,5.60
2023-01-19T08:28:13.807Z,5.60
2023-01-19T08:30:43.589Z,5.60
2023-01-19T08:33:13.927Z,5.60
2023-01-19T08:35:42.791Z,5.60
2023-01-19T08:38:10.475Z,5.50
2023-01-19T08:40:39.742Z,5.60
2023-01-19T08:43:13.273Z,5.60
2023-01-19T08:45:42.485Z,5.70
2023-01-19T08:48:10.337Z,5.70
2023-01-19T08:50:37.214Z,5.80
2023-01-19T08:53:06.905Z,5.80
2023-01-19T08:55:36.473Z,5.80
2023-01-19T08:58:05.191Z,5.90
2023-01-19T09:00:37.958Z,5.90
2023-01-19T09:03:07.243Z,5.90
2023-01-19T09:05:37.292Z,5.90
2023-01-19T09:08:06.425Z,6.00
2023-01-19T09:10:36.112Z,6.00
2023-01-19T09:13:08.413Z,6.00
2023-01-19T09:15:37.638Z,6.00
2023-01-19T09:18:07.192Z,5.90
2023-01-19T09:20:36.250Z,5.90
2023-01-19T09:23:03.444Z,5.90
2023-01-19T09:25:30.755Z,5.90
2023-01-19T09:27:59.998Z,5.90
2023-01-19T09:30:27.784Z,5.90
2023-01-19T09:33:08.026Z,5.90
2023-01-19T09:35:35.374Z,6.00
2023-01-19T09:38:02.575Z,6.00
2023-01-19T09:40:30.738Z,6.00
2023-01-19T09:43:12.152Z,6.10
2023-01-19T09:45:57.504Z,6.10
2023-01-19T09:48:53.163Z,6.10
2023-01-19T09:51:26.382Z,6.20
2023-01-19T09:54:02.564Z,6.20
2023-01-19T09:56:31.563Z,6.20
2023-01-19T09:58:59.323Z,6.30
2023-01-19T10:01:35.479Z,6.30
2023-01-19T10:04:19.663Z,6.40
2023-01-19T10:06:48.619Z,6.40
2023-01-19T10:09:48.999Z,6.50
2023-01-19T10:12:33.403Z,6.50
2023-01-19T10:15:17.230Z,6.60
2023-01-19T10:17:49.927Z,6.60
2023-01-19T10:20:36.728Z,6.70
2023-01-19T10:23:16.371Z,6.80
2023-01-19T10:25:43.494Z,6.80
2023-01-19T10:28:13.579Z,6.90
2023-01-19T10:30:44.114Z,6.90
2023-01-19T10:33:13.618Z,6.90
2023-01-19T10:35:40.512Z,6.90
2023-01-19T10:38:14.029Z,7.00
2023-01-19T10:40:58.742Z,7.10
2023-01-19T10:43:34.779Z,7.10
2023-01-19T10:46:07.132Z,7.20
2023-01-19T10:48:54.228Z,7.20
2023-01-19T10:51:21.730Z,7.30
2023-01-19T10:54:00.880Z,7.40
2023-01-19T10:56:31.943Z,7.40
2023-01-19T10:59:00.406Z,7.40
2023-01-19T11:01:29.917Z,7.40
2023-01-19T11:04:05.466Z,7.50
2023-01-19T11:06:34.324Z,7.50
2023-01-19T11:09:30.705Z,7.50
2023-01-19T11:11:57.612Z,7.60
2023-01-19T11:14:26.340Z,7.60
2023-01-19T11:16:57.891Z,7.60
2023-01-19T11:19:31.091Z,7.70
2023-01-19T11:22:26.961Z,7.70
2023-01-19T11:24:58.650Z,7.80
2023-01-19T11:27:26.469Z,7.80
2023-01-19T11:29:59.498Z,7.80
2023-01-19T11:32:28.062Z,7.90
2023-01-19T11:34:54.992Z,7.90
2023-01-19T11:37:29.607Z,7.90
2023-01-19T11:39:59.002Z,8.00
2023-01-19T11:42:28.268Z,8.00
2023-01-19T11:44:58.267Z,8.00
2023-01-19T11:47:27.179Z,8.00
2023-01-19T11:49:57.135Z,8.00
2023-01-19T11:52:39.584Z,8.10
2023-01-19T11:55:17.607Z,8.10
2023-01-19T11:57:51.525Z,8.10
2023-01-19T12:00:28.638Z,8.20
2023-01-19T12:03:12.546Z,8.20
2023-01-19T12:05:42.965Z,8.20
2023-01-19T12:08:16.881Z,8.10
2023-01-19T12:10:47.174Z,8.10
2023-01-19T12:13:26.199Z,8.00
2023-01-19T12:16:07.370Z,7.90
2023-01-19T12:18:45.255Z,7.80
2023-01-19T12:21:12.312Z,7.80
2023-01-19T12:24:19.107Z,7.80
2023-01-19T12:26:58.788Z,7.80
2023-01-19T12:29:29.279Z,7.70
2023-01-19T12:32:35.525Z,7.70
2023-01-19T12:35:02.964Z,7.60
2023-01-19T12:37:42.932Z,7.50
2023-01-19T12:40:31.339Z,7.50
2023-01-19T12:43:05.260Z,7.40
2023-01-19T12:45:37.959Z,7.30
2023-01-19T12:48:06.870Z,7.30
2023-01-19T12:50:38.253Z,7.30
2023-01-19T12:53:16.884Z,7.20
2023-01-19T12:55:46.828Z,7.20
2023-01-19T12:58:22.629Z,7.20
2023-01-19T13:01:10.311Z,7.10
2023-01-19T13:04:09.137Z,7.10
2023-01-19T13:06:48.254Z,7.20
2023-01-19T13:09:34.029Z,7.30
2023-01-19T13:12:23.615Z,7.40
2023-01-19T13:14:51.012Z,7.70
2023-01-19T13:17:34.206Z,7.90
2023-01-19T13:20:15.349Z,8.00
2023-01-19T13:22:52.084Z,8.00
2023-01-19T13:25:33.595Z,7.90
2023-01-19T13:28:01.287Z,7.90
2023-01-19T13:30:30.099Z,7.90
2023-01-19T13:33:05.266Z,8.00
2023-01-19T13:35:32.611Z,8.10
2023-01-19T13:38:00.445Z,8.30
2023-01-19T13:40:41.177Z,8.60
2023-01-19T13:43:19.593Z,8.80
2023-01-19T13:45:52.424Z,9.00
2023-01-19T13:48:23.226Z,9.20
2023-01-19T13:50:59.487Z,9.30
2023-01-19T13:53:26.465Z,9.40
2023-01-19T13:56:09.487Z,9.40
2023-01-19T13:58:36.670Z,9.40
2023-01-19T14:01:03.616Z,9.30
2023-01-19T14:03:30.568Z,9.20
2023-01-19T14:05:57.631Z,9.10
2023-01-19T14:08:25.785Z,8.90
2023-01-19T14:10:56.487Z,8.80
2023-01-19T14:13:25.807Z,8.70
2023-01-19T14:15:55.935Z,8.60
2023-01-19T14:18:23.484Z,8.50
2023-01-19T14:21:11.943Z,8.40
2023-01-19T14:23:50.911Z,8.30
2023-01-19T14:26:49.871Z,8.20
2023-01-19T14:29:18.739Z,8.10
2023-01-19T14:31:48.233Z,7.90
2023-01-19T14:34:45.017Z,7.90
2023-01-19T14:37:22.207Z,7.80
2023-01-19T14:40:05.650Z,7.80
2023-01-19T14:42:37.205Z,7.70
2023-01-19T14:45:08.567Z,7.70
2023-01-19T14:47:38.616Z,7.70
2023-01-19T14:50:23.662Z,7.60
2023-01-19T14:53:00.674Z,7.60
2023-01-19T14:55:39.342Z,7.60
2023-01-19T14:58:11.738Z,7.60
2023-01-19T15:00:39.691Z,7.70
2023-01-19T15:03:06.784Z,7.70
2023-01-19T15:05:34.009Z,7.80
2023-01-19T15:08:02.959Z,7.90
2023-01-19T15:10:31.057Z,8.00
2023-01-19T15:12:58.075Z,8.00
2023-01-19T15:15:32.028Z,8.00
2023-01-19T15:18:01.067Z,8.00
2023-01-19T15:20:28.316Z,8.00
2023-01-19T15:22:55.211Z,8.00
2023-01-19T15:25:27.455Z,8.00
2023-01-19T15:27:57.867Z,8.00
2023-01-19T15:30:33.763Z,8.00
2023-01-19T15:33:01.955Z,8.10
2023-01-19T15:35:28.795Z,8.10
2023-01-19T15:37:55.846Z,8.10
2023-01-19T15:40:23.285Z,8.00
2023-01-19T15:42:50.713Z,8.10
2023-01-19T15:45:36.394Z,8.00
2023-01-19T15:48:06.004Z,8.00
2023-01-19T15:50:35.644Z,7.90
2023-01-19T15:53:02.545Z,7.90
2023-01-19T15:55:29.578Z,7.80
2023-01-19T15:58:01.660Z,7.80
2023-01-19T16:00:32.913Z,7.70
2023-01-19T16:03:01.231Z,7.70
2023-01-19T16:05:41.987Z,7.60
2023-01-19T16:08:10.031Z,7.60
2023-01-19T16:10:36.912Z,7.50
2023-01-19T16:13:04.158Z,7.50
2023-01-19T16:15:31.009Z,7.40
2023-01-19T16:17:58.416Z,7.40
2023-01-19T16:20:25.303Z,7.50
2023-01-19T16:22:52.870Z,7.40
2023-01-19T16:25:20.863Z,7.40
2023-01-19T16:27:47.708Z,7.40
2023-01-19T16:30:16.365Z,7.40
2023-01-19T16:32:43.415Z,7.40
2023-01-19T16:35:10.386Z,7.40
2023-01-19T16:37:37.438Z,7.30
2023-01-19T16:40:04.765Z,7.30
2023-01-19T16:42:31.828Z,7.30
2023-01-19T16:44:58.784Z,7.30
2023-01-19T16:47:25.683Z,7.30
2023-01-19T16:49:52.623Z,7.30
2023-01-19T16:52:19.637Z,7.20
2023-01-19T16:54:46.704Z,7.20
2023-01-19T16:57:14.560Z,7.20
2023-01-19T16:59:41.480Z,7.20
2023-01-19T17:02:11.040Z,7.20
2023-01-19T17:04:38.053Z,7.20
2023-01-19T17:07:04.923Z,7.10
2023-01-19T17:09:31.737Z,7.10
2023-01-19T17:11:58.629Z,7.10
2023-01-19T17:14:25.548Z,7.00
2023-01-19T17:16:52.524Z,7.00
2023-01-19T17:19:22.201Z,7.00
2023-01-19T17:21:49.954Z,6.90
2023-01-19T17:24:17.486Z,6.90
2023-01-19T17:26:45.998Z,6.90
2023-01-19T17:29:12.958Z,6.80
2023-01-19T17:31:39.863Z,6.80
2023-01-19T17:34:06.915Z,6.80
2023-01-19T17:36:34.095Z,6.80
2023-01-19T17:39:05.067Z,6.70
2023-01-19T17:41:34.997Z,6.70
2023-01-19T17:44:03.352Z,6.70
2023-01-19T17:46:30.881Z,6.70
2023-01-19T17:49:00.055Z,6.60
2023-01-19T17:51:27.574Z,6.60
2023-01-19T17:53:55.199Z,6.60
2023-01-19T17:56:29.424Z,6.50
2023-01-19T17:58:57.512Z,6.50
2023-01-19T18:01:27.445Z,6.40
2023-01-19T18:03:54.724Z,6.40
2023-01-19T18:06:22.423Z,6.30
2023-01-19T18:08:50.359Z,6.20
2023-01-19T18:11:18.630Z,6.10
2023-01-19T18:13:46.779Z,6.10
2023-01-19T18:16:16.367Z,6.00
2023-01-19T18:18:44.281Z,6.00
2023-01-19T18:21:13.563Z,5.90
2023-01-19T18:23:40.835Z,5.90
2023-01-19T18:26:10.182Z,5.90
2023-01-19T18:28:37.220Z,5.90
2023-01-19T18:31:12.370Z,5.80
2023-01-19T18:33:40.249Z,5.80
2023-01-19T18:36:08.125Z,5.80
2023-01-19T18:38:35.774Z,5.80
2023-01-19T18:41:10.057Z,5.70
2023-01-19T18:43:37.148Z,5.70
2023-01-19T18:46:04.500Z,5.70
2023-01-19T18:48:31.833Z,5.70
2023-01-19T18:51:03.282Z,5.70
2023-01-19T18:53:31.914Z,5.70
2023-01-19T18:56:01.938Z,5.70
2023-01-19T18:58:29.285Z,5.60
2023-01-19T19:00:56.666Z,5.60
2023-01-19T19:03:23.877Z,5.60
2023-01-19T19:05:50.788Z,5.60
2023-01-19T19:08:17.990Z,5.60
2023-01-19T19:10:45.299Z,5.60
2023-01-19T19:13:13.093Z,5.60
2023-01-19T19:15:40.109Z,5.60
2023-01-19T19:18:08.953Z,5.50
2023-01-19T19:20:39.499Z,5.50
2023-01-19T19:23:06.370Z,5.50
2023-01-19T19:25:33.521Z,5.50
2023-01-19T19:28:00.496Z,5.50
2023-01-19T19:30:27.457Z,5.50
2023-01-19T19:32:56.127Z,5.50
2023-01-19T19:35:38.021Z,5.50
2023-01-19T19:38:04.879Z,5.40
2023-01-19T19:40:31.766Z,5.40
2023-01-19T19:42:58.966Z,5.40
2023-01-19T19:45:26.234Z,5.30
2023-01-19T19:47:53.109Z,5.30
2023-01-19T19:50:20.051Z,5.20
2023-01-19T19:52:46.986Z,5.20
2023-01-19T19:55:13.922Z,5.10
2023-01-19T19:57:40.868Z,5.10
2023-01-19T20:00:08.447Z,5.10
2023-01-19T20:02:38.087Z,5.10
2023-01-19T20:05:05.555Z,5.20
2023-01-19T20:07:32.905Z,5.20
2023-01-19T20:09:59.906Z,5.20
2023-01-19T20:12:27.383Z,5.20
2023-01-19T20:14:54.354Z,5.20
2023-01-19T20:17:21.328Z,5.20
2023-01-19T20:19:49.052Z,5.20
2023-01-19T20:22:16.065Z,5.10
2023-01-19T20:24:43.021Z,5.10
2023-01-19T20:27:09.881Z,5.10
2023-01-19T20:29:36.726Z,5.10
2023-01-19T20:32:03.952Z,5.10
2023-01-19T20:34:33.472Z,5.10
2023-01-19T20:37:01.805Z,5.20
2023-01-19T20:39:30.278Z,5.10
2023-01-19T20:41:57.200Z,5.20
2023-01-19T20:44:25.790Z,5.10
2023-01-19T20:46:53.890Z,5.10
2023-01-19T20:49:21.021Z,5.00
2023-01-19T20:51:48.432Z,4.90
2023-01-19T20:54:17.597Z,4.80
2023-01-19T20:56:44.655Z,4.80
2023-01-19T20:59:12.559Z,4.70
2023-01-19T21:01:40.317Z,4.70
2023-01-19T21:04:07.943Z,4.70
2023-01-19T21:06:35.389Z,4.70
2023-01-19T21:09:02.430Z,4.70
2023-01-19T21:11:29.467Z,4.70
2023-01-19T21:13:56.596Z,4.70
2023-01-19T21:16:26.293Z,4.70
2023-01-19T21:18:53.785Z,4.70
2023-01-19T21:21:30.470Z,4.80
2023-01-19T21:24:00.172Z,4.90
2023-01-19T21:26:29.736Z,4.90
2023-01-19T21:28:58.256Z,5.00
2023-01-19T21:31:27.571Z,5.00
2023-01-19T21:33:55.584Z,5.00
2023-01-19T21:36:23.599Z,5.10
2023-01-19T21:38:51.456Z,5.10
2023-01-19T21:41:18.825Z,5.10
2023-01-19T21:43:46.245Z,5.10
2023-01-19T21:46:14.678Z,5.20
2023-01-19T21:48:42.387Z,5.20
2023-01-19T21:51:09.918Z,5.20
2023-01-19T21:53:36.909Z,5.20
2023-01-19T21:56:06.982Z,5.20
2023-01-19T21:58:33.972Z,5.20
2023-01-19T22:01:02.763Z,5.20
2023-01-19T22:03:30.033Z,5.10
2023-01-19T22:05:57.327Z,5.10
2023-01-19T22:08:24.564Z,5.10
2023-01-19T22:10:51.474Z,5.10
2023-01-19T22:13:18.359Z,5.00
2023-01-19T22:15:45.277Z,5.00
2023-01-19T22:18:12.171Z,5.00
2023-01-19T22:20:39.148Z,5.00
2023-01-19T22:23:06.004Z,5.00
2023-01-19T22:25:33.447Z,5.00
2023-01-19T22:28:00.415Z,5.00
2023-01-19T22:30:27.431Z,4.90
2023-01-19T22:32:54.490Z,4.90
2023-01-19T22:35:21.391Z,4.90
2023-01-19T22:37:48.275Z,4.80
2023-01-19T22:40:15.369Z,4.70
2023-01-19T22:42:46.613Z,4.70
2023-01-19T22:45:13.940Z,4.60
2023-01-19T22:47:41.343Z,4.60
2023-01-19T22:50:09.001Z,4.50
2023-01-19T22:52:35.850Z,4.50
2023-01-19T22:55:02.804Z,4.50
2023-01-19T22:57:35.735Z,4.40
2023-01-19T23:00:08.614Z,4.40
2023-01-19T23:02:35.559Z,4.40
2023-01-19T23:05:02.427Z,4.40
2023-01-19T23:07:29.354Z,4.40
2023-01-19T23:09:56.194Z,4.40
2023-01-19T23:12:23.127Z,4.40
2023-01-19T23:14:50.052Z,4.40
2023-01-19T23:17:16.901Z,4.50
2023-01-19T23:19:43.849Z,4.50
2023-01-19T23:22:10.856Z,4.60
2023-01-19T23:24:37.785Z,4.60
2023-01-19T23:27:04.706Z,4.60
2023-01-19T23:29:31.627Z,4.60
2023-01-19T23:31:58.556Z,4.60
2023-01-19T23:34:25.485Z,4.60
2023-01-19T23:36:52.269Z,4.60
2023-01-19T23:39:22.173Z,4.60
2023-01-19T23:41:50.034Z,4.60
2023-01-19T23:44:17.391Z,4.60
2023-01-19T23:46:44.707Z,4.60
2023-01-19T23:49:12.753Z,4.60
2023-01-19T23:51:40.659Z,4.70
2023-01-19T23:54:07.955Z,4.70
2023-01-19T23:56:37.246Z,4.70
2023-01-19T23:59:09.617Z,4.70
